Terminal Aerodrome Forecast
Issued by NWS

Home | Current Version | Previous Version | Text Only | Print | Product List | Glossary On
Versions: 1 2 3 4 5 6 7 8 9 10 11 12
000
FTUS42 KGSP 221739
TAFAND
TAF
KAND 221739Z 2218/2318 15006KT P6SM VCSH OVC021
     FM222000 14006KT P6SM VCSH OVC015
     FM230000 14006KT P6SM OVC018
      TEMPO 2300/2303 4SM -SHRA OVC008
     FM230300 17010G17KT 3SM -SHRA BR OVC005 PROB30 2305/2309 4SM
      -TSRA BR OVC004CB
     FM231200 25011G18KT P6SM SCT250=

USA.gov is the U.S. government's official web portal to all federal, state and local government web resources and services.